createdAt,value
2023-05-10T00:00:28.031Z,100966.19
2023-05-10T00:02:56.373Z,100970.81
2023-05-10T00:05:24.539Z,100965.16
2023-05-10T00:07:52.761Z,100974.94
2023-05-10T00:10:20.995Z,100973.75
2023-05-10T00:12:50.848Z,100975.38
2023-05-10T00:15:19.014Z,100972.91
2023-05-10T00:17:47.303Z,100972.56
2023-05-10T00:20:15.862Z,100970.81
2023-05-10T00:22:44.395Z,100965.91
2023-05-10T00:25:12.718Z,100971.00
2023-05-10T00:27:40.961Z,100965.16
2023-05-10T00:30:12.047Z,100969.06
2023-05-10T00:32:40.356Z,100966.97
2023-05-10T00:35:09.353Z,100974.72
2023-05-10T00:37:37.675Z,100966.41
2023-05-10T00:40:07.491Z,100972.91
2023-05-10T00:42:35.634Z,100966.59
2023-05-10T00:45:03.910Z,100971.63
2023-05-10T00:47:33.772Z,100968.63
2023-05-10T00:50:02.503Z,100964.94
2023-05-10T00:52:31.218Z,100969.06
2023-05-10T00:55:00.318Z,100970.91
2023-05-10T00:57:29.194Z,100971.16
2023-05-10T00:59:57.421Z,100969.97
2023-05-10T01:02:26.591Z,100964.78
2023-05-10T01:04:57.256Z,100964.13
2023-05-10T01:07:25.683Z,100963.94
2023-05-10T01:09:53.979Z,100958.84
2023-05-10T01:12:22.439Z,100964.94
2023-05-10T01:14:50.956Z,100958.22
2023-05-10T01:17:20.092Z,100962.69
2023-05-10T01:19:48.365Z,100962.97
2023-05-10T01:22:41.655Z,100960.66
2023-05-10T01:25:51.315Z,100960.41
2023-05-10T01:28:35.260Z,100959.94
2023-05-10T01:31:18.387Z,100950.16
2023-05-10T01:33:51.370Z,100950.16
2023-05-10T01:36:27.291Z,100953.63
2023-05-10T01:39:01.350Z,100953.75
2023-05-10T01:41:38.621Z,100954.09
2023-05-10T01:44:17.698Z,100958.59
2023-05-10T01:46:48.576Z,100954.94
2023-05-10T01:49:26.200Z,100940.66
2023-05-10T01:51:56.985Z,100951.66
2023-05-10T01:54:26.970Z,100956.28
2023-05-10T01:57:02.441Z,100956.69
2023-05-10T01:59:34.009Z,100957.03
2023-05-10T02:02:03.449Z,100953.09
2023-05-10T02:04:34.896Z,100953.56
2023-05-10T02:07:04.378Z,100959.69
2023-05-10T02:09:35.853Z,100944.97
2023-05-10T02:12:04.339Z,100948.16
2023-05-10T02:14:36.808Z,100952.28
2023-05-10T02:17:07.734Z,100949.44
2023-05-10T02:19:39.954Z,100948.81
2023-05-10T02:22:09.551Z,100958.88
2023-05-10T02:24:39.171Z,100951.28
2023-05-10T02:27:08.482Z,100953.56
2023-05-10T02:29:37.699Z,100951.28
2023-05-10T02:32:07.236Z,100948.47
2023-05-10T02:34:37.560Z,100945.63
2023-05-10T02:37:07.128Z,100948.81
2023-05-10T02:39:36.500Z,100941.88
2023-05-10T02:42:05.479Z,100942.44
2023-05-10T02:44:35.978Z,100948.91
2023-05-10T02:47:04.701Z,100943.13
2023-05-10T02:49:32.985Z,100951.09
2023-05-10T02:52:06.185Z,100946.44
2023-05-10T02:54:37.206Z,100943.59
2023-05-10T02:57:08.125Z,100953.72
2023-05-10T02:59:36.590Z,100953.72
2023-05-10T03:02:05.352Z,100948.81
2023-05-10T03:04:33.856Z,100949.63
2023-05-10T03:07:04.435Z,100951.19
2023-05-10T03:09:33.561Z,100942.06
2023-05-10T03:12:10.079Z,100940.75
2023-05-10T03:14:49.676Z,100947.41
2023-05-10T03:17:26.009Z,100945.44
2023-05-10T03:19:57.439Z,100947.06
2023-05-10T03:22:33.022Z,100954.72
2023-05-10T03:25:06.773Z,100950.91
2023-05-10T03:27:36.373Z,100944.78
2023-05-10T03:30:05.103Z,100943.78
2023-05-10T03:32:35.482Z,100941.16
2023-05-10T03:35:03.932Z,100933.84
2023-05-10T03:37:33.546Z,100942.13
2023-05-10T03:40:01.931Z,100941.97
2023-05-10T03:42:30.165Z,100945.09
2023-05-10T03:44:58.264Z,100937.13
2023-05-10T03:47:26.398Z,100938.50
2023-05-10T03:49:54.537Z,100938.13
2023-05-10T03:52:23.080Z,100932.19
2023-05-10T03:54:52.610Z,100941.69
2023-05-10T03:57:20.659Z,100943.34
2023-05-10T03:59:48.792Z,100939.59
2023-05-10T04:02:17.102Z,100940.59
2023-05-10T04:04:45.293Z,100940.41
2023-05-10T04:07:13.415Z,100943.06
2023-05-10T04:09:41.516Z,100946.88
2023-05-10T04:12:11.240Z,100940.13
2023-05-10T04:14:40.346Z,100934.09
2023-05-10T04:17:08.827Z,100944.88
2023-05-10T04:19:37.091Z,100943.53
2023-05-10T04:22:06.109Z,100941.22
2023-05-10T04:24:34.673Z,100944.69
2023-05-10T04:27:02.893Z,100938.78
2023-05-10T04:29:32.456Z,100944.88
2023-05-10T04:32:00.738Z,100938.09
2023-05-10T04:34:28.974Z,100944.31
2023-05-10T04:36:57.257Z,100938.38
2023-05-10T04:39:25.483Z,100941.03
2023-05-10T04:41:54.005Z,100947.63
2023-05-10T04:44:22.277Z,100948.31
2023-05-10T04:46:52.198Z,100947.63
2023-05-10T04:49:20.307Z,100938.88
2023-05-10T04:51:48.553Z,100944.38
2023-05-10T04:54:16.810Z,100942.22
2023-05-10T04:56:44.917Z,100936.72
2023-05-10T04:59:13.099Z,100936.94
2023-05-10T05:01:42.009Z,100939.69
2023-05-10T05:04:11.515Z,100939.88
2023-05-10T05:06:39.685Z,100936.06
2023-05-10T05:09:07.961Z,100933.44
2023-05-10T05:11:36.168Z,100933.78
2023-05-10T05:14:04.325Z,100942.22
2023-05-10T05:16:33.677Z,100947.94
2023-05-10T05:19:02.269Z,100946.78
2023-05-10T05:21:33.309Z,100934.03
2023-05-10T05:24:01.841Z,100942.22
2023-05-10T05:26:30.118Z,100939.22
2023-05-10T05:28:58.293Z,100943.34
2023-05-10T05:31:26.557Z,100944.78
2023-05-10T05:33:54.751Z,100938.50
2023-05-10T05:36:23.278Z,100942.13
2023-05-10T05:38:52.838Z,100941.22
2023-05-10T05:41:21.011Z,100950.44
2023-05-10T05:43:49.287Z,100944.78
2023-05-10T05:46:17.481Z,100937.31
2023-05-10T05:48:46.054Z,100940.75
2023-05-10T05:51:14.291Z,100943.88
2023-05-10T05:53:42.540Z,100945.69
2023-05-10T05:56:12.236Z,100948.53
2023-05-10T05:58:40.526Z,100944.34
2023-05-10T06:01:08.828Z,100951.28
2023-05-10T06:03:37.256Z,100954.00
2023-05-10T06:06:06.177Z,100953.19
2023-05-10T06:08:34.995Z,100956.56
2023-05-10T06:11:05.395Z,100953.56
2023-05-10T06:13:36.374Z,100947.34
2023-05-10T06:16:04.970Z,100954.09
2023-05-10T06:18:33.236Z,100956.41
2023-05-10T06:21:01.542Z,100945.88
2023-05-10T06:23:29.879Z,100952.81
2023-05-10T06:25:57.977Z,100954.09
2023-05-10T06:28:26.275Z,100958.38
2023-05-10T06:30:55.865Z,100955.38
2023-05-10T06:33:23.931Z,100955.72
2023-05-10T06:35:52.139Z,100962.50
2023-05-10T06:38:20.301Z,100964.94
2023-05-10T06:40:48.439Z,100965.16
2023-05-10T06:43:16.722Z,100974.28
2023-05-10T06:45:44.998Z,100971.53
2023-05-10T06:48:14.568Z,100975.38
2023-05-10T06:50:42.817Z,100972.81
2023-05-10T06:53:10.911Z,100979.84
2023-05-10T06:55:39.134Z,100978.63
2023-05-10T06:58:07.377Z,100982.75
2023-05-10T07:00:36.189Z,100983.13
2023-05-10T07:03:04.475Z,100980.66
2023-05-10T07:05:34.246Z,100986.78
2023-05-10T07:08:02.910Z,100997.28
2023-05-10T07:10:31.414Z,100983.41
2023-05-10T07:12:59.699Z,100992.72
2023-05-10T07:15:28.024Z,100986.41
2023-05-10T07:17:56.745Z,100994.00
2023-05-10T07:20:24.961Z,100994.81
2023-05-10T07:22:54.598Z,100982.38
2023-05-10T07:25:22.999Z,100986.03
2023-05-10T07:27:52.061Z,100993.94
2023-05-10T07:30:20.692Z,100984.19
2023-05-10T07:32:48.887Z,100983.16
2023-05-10T07:35:17.759Z,100991.28
2023-05-10T07:37:46.108Z,100992.50
2023-05-10T07:40:15.633Z,100984.91
2023-05-10T07:42:43.728Z,100984.34
2023-05-10T07:45:12.415Z,100984.94
2023-05-10T07:47:40.700Z,100986.13
2023-05-10T07:50:10.287Z,100991.84
2023-05-10T07:52:38.390Z,100975.16
2023-05-10T07:55:08.365Z,100988.06
2023-05-10T07:57:38.231Z,100986.34
2023-05-10T08:00:07.421Z,100984.53
2023-05-10T08:02:37.377Z,100989.53
2023-05-10T08:05:06.524Z,100987.25
2023-05-10T08:07:34.849Z,100989.97
2023-05-10T08:10:03.075Z,101001.16
2023-05-10T08:12:31.395Z,100983.28
2023-05-10T08:15:01.055Z,100992.63
2023-05-10T08:17:29.170Z,100992.38
2023-05-10T08:19:57.781Z,100995.53
2023-05-10T08:22:26.018Z,100990.50
2023-05-10T08:24:54.274Z,100993.03
2023-05-10T08:27:22.376Z,100991.88
2023-05-10T08:29:50.794Z,100995.78
2023-05-10T08:32:20.637Z,100988.41
2023-05-10T08:34:48.814Z,100998.53
2023-05-10T08:37:17.617Z,100999.44
2023-05-10T08:39:46.849Z,101001.22
2023-05-10T08:42:19.058Z,101001.84
2023-05-10T08:44:50.318Z,101007.41
2023-05-10T08:47:20.920Z,101010.56
2023-05-10T08:49:52.173Z,101013.03
2023-05-10T08:52:21.962Z,101010.63
2023-05-10T08:54:50.679Z,101015.53
2023-05-10T08:57:18.922Z,101015.38
2023-05-10T08:59:47.187Z,101015.63
2023-05-10T09:02:18.610Z,101018.69
2023-05-10T09:04:50.180Z,101021.75
2023-05-10T09:07:19.148Z,101013.84
2023-05-10T09:09:48.535Z,101020.13
2023-05-10T09:12:17.621Z,101017.53
2023-05-10T09:14:47.813Z,101018.97
2023-05-10T09:17:16.203Z,101012.75
2023-05-10T09:19:44.485Z,101019.22
2023-05-10T09:22:14.414Z,101014.16
2023-05-10T09:24:46.377Z,101016.06
2023-05-10T09:27:14.598Z,101002.13
2023-05-10T09:29:43.502Z,101017.00
2023-05-10T09:32:13.719Z,101018.28
2023-05-10T09:34:43.320Z,101018.28
2023-05-10T09:37:11.742Z,101006.38
2023-05-10T09:39:42.419Z,101018.19
2023-05-10T09:42:11.916Z,101028.00
2023-05-10T09:44:41.961Z,101034.06
2023-05-10T09:47:10.350Z,101038.34
2023-05-10T09:49:38.607Z,101036.91
2023-05-10T09:52:09.014Z,101031.59
2023-05-10T09:54:37.482Z,101038.91
2023-05-10T09:57:07.440Z,101044.88
2023-05-10T09:59:36.528Z,101036.09
2023-05-10T10:02:05.144Z,101037.97
2023-05-10T10:04:33.933Z,101035.75
2023-05-10T10:07:03.916Z,101025.88
2023-05-10T10:09:32.691Z,101035.06
2023-05-10T10:12:01.477Z,101032.03
2023-05-10T10:14:31.727Z,101022.69
2023-05-10T10:17:07.744Z,101035.41
2023-05-10T10:19:38.118Z,101032.59
2023-05-10T10:22:07.096Z,101041.66
2023-05-10T10:24:35.447Z,101032.88
2023-05-10T10:27:15.317Z,101023.28
2023-05-10T10:29:55.183Z,101029.41
2023-05-10T10:32:30.418Z,101022.09
2023-05-10T10:34:59.268Z,101028.34
2023-05-10T10:37:45.320Z,101018.19
2023-05-10T10:40:27.973Z,101021.44
2023-05-10T10:42:56.651Z,101021.47
2023-05-10T10:45:27.700Z,101018.19
2023-05-10T10:48:24.183Z,101025.31
2023-05-10T10:50:58.765Z,101032.50
2023-05-10T10:53:30.132Z,101029.84
2023-05-10T10:56:07.905Z,101036.81
2023-05-10T10:58:36.606Z,101034.75
2023-05-10T11:01:16.752Z,101045.00
2023-05-10T11:04:19.806Z,101054.00
2023-05-10T11:06:48.029Z,101042.75
2023-05-10T11:09:16.361Z,101046.44
2023-05-10T11:11:53.245Z,101045.63
2023-05-10T11:14:23.759Z,101039.88
2023-05-10T11:16:53.854Z,101047.66
2023-05-10T11:19:22.199Z,101044.38
2023-05-10T11:21:51.974Z,101049.69
2023-05-10T11:24:21.990Z,101041.13
2023-05-10T11:26:52.804Z,101042.75
2023-05-10T11:29:21.202Z,101048.88
2023-05-10T11:31:50.255Z,101039.25
2023-05-10T11:34:31.266Z,101045.81
2023-05-10T11:37:00.185Z,101045.78
2023-05-10T11:39:29.797Z,101044.97
2023-05-10T11:41:58.691Z,101045.56
2023-05-10T11:44:31.847Z,101039.22
2023-05-10T11:47:01.915Z,101035.94
2023-05-10T11:49:31.663Z,101044.78
2023-05-10T11:52:07.310Z,101043.13
2023-05-10T11:54:36.416Z,101035.56
2023-05-10T11:57:05.260Z,101043.97
2023-05-10T11:59:33.441Z,101057.09
2023-05-10T12:02:01.964Z,101054.00
2023-05-10T12:04:31.874Z,101062.19
2023-05-10T12:07:00.333Z,101060.97
2023-05-10T12:09:40.087Z,101070.97
2023-05-10T12:12:11.222Z,101058.44
2023-05-10T12:14:39.527Z,101066.78
2023-05-10T12:17:07.575Z,101067.53
2023-05-10T12:19:44.952Z,101063.91
2023-05-10T12:22:13.184Z,101055.78
2023-05-10T12:24:41.641Z,101058.28
2023-05-10T12:29:56.943Z,101048.50
2023-05-10T12:32:40.167Z,101054.22
2023-05-10T12:35:10.877Z,101050.28
2023-05-10T12:37:40.161Z,101053.34
2023-05-10T12:40:10.353Z,101047.56
2023-05-10T12:42:39.146Z,101049.63
2023-05-10T12:45:08.349Z,101061.91
2023-05-10T12:47:36.688Z,101052.31
2023-05-10T12:50:05.815Z,101049.63
2023-05-10T12:52:35.472Z,101052.47
2023-05-10T12:55:04.237Z,101054.97
2023-05-10T12:57:32.430Z,101060.72
2023-05-10T13:00:00.729Z,101065.66
2023-05-10T13:02:29.027Z,101062.75
2023-05-10T13:04:57.418Z,101068.47
2023-05-10T13:07:25.548Z,101064.41
2023-05-10T13:09:55.210Z,101054.81
2023-05-10T13:12:23.334Z,101060.53
2023-05-10T13:14:51.610Z,101052.75
2023-05-10T13:17:19.714Z,101057.47
2023-05-10T13:19:47.854Z,101051.97
2023-05-10T13:22:18.727Z,101052.38
2023-05-10T13:24:51.143Z,101048.88
2023-05-10T13:27:21.009Z,101041.13
2023-05-10T13:29:49.342Z,101050.94
2023-05-10T13:32:17.446Z,101050.72
2023-05-10T13:34:45.965Z,101055.88
2023-05-10T13:37:14.337Z,101056.69
2023-05-10T13:39:42.578Z,101057.50
2023-05-10T13:42:10.756Z,101044.56
2023-05-10T13:44:40.255Z,101055.16
2023-05-10T13:47:08.412Z,101054.13
2023-05-10T13:49:36.582Z,101052.66
2023-05-10T13:52:07.885Z,101065.00
2023-05-10T13:54:36.803Z,101061.72
2023-05-10T13:57:05.571Z,101066.00
2023-05-10T13:59:33.735Z,101058.41
2023-05-10T14:02:04.238Z,101063.94
2023-05-10T14:04:32.718Z,101061.88
2023-05-10T14:07:01.241Z,101062.03
2023-05-10T14:09:29.379Z,101068.13
2023-05-10T14:11:57.650Z,101071.25
2023-05-10T14:14:25.978Z,101067.78
2023-05-10T14:16:54.162Z,101074.22
2023-05-10T14:19:23.649Z,101079.16
2023-05-10T14:21:53.122Z,101089.81
2023-05-10T14:24:21.226Z,101084.50
2023-05-10T14:26:49.509Z,101088.31
2023-05-10T14:29:17.653Z,101073.66
2023-05-10T14:31:45.931Z,101079.81
2023-05-10T14:34:14.163Z,101065.88
2023-05-10T14:36:43.727Z,101063.63
2023-05-10T14:39:13.836Z,101051.09
2023-05-10T14:41:44.034Z,101052.41
2023-05-10T14:44:12.315Z,101044.66
2023-05-10T14:46:40.786Z,101043.44
2023-05-10T14:49:08.956Z,101042.63
2023-05-10T14:51:37.945Z,101036.03
2023-05-10T14:54:07.679Z,101045.06
2023-05-10T14:56:35.830Z,101041.31
2023-05-10T14:59:05.088Z,101050.09
2023-05-10T15:01:34.222Z,101046.38
2023-05-10T15:04:03.063Z,101058.06
2023-05-10T15:06:34.090Z,101046.66
2023-05-10T15:09:02.691Z,101041.75
2023-05-10T15:11:32.378Z,101041.78
2023-05-10T15:14:00.790Z,101046.59
2023-05-10T15:16:29.258Z,101036.78
2023-05-10T15:18:57.566Z,101047.22
2023-05-10T15:21:25.779Z,101042.03
2023-05-10T15:23:53.883Z,101046.94
2023-05-10T15:26:23.068Z,101054.13
2023-05-10T15:28:53.619Z,101068.72
2023-05-10T15:31:21.909Z,101068.56
2023-05-10T15:33:50.167Z,101057.09
2023-05-10T15:36:19.051Z,101047.25
2023-05-10T15:38:47.217Z,101034.16
2023-05-10T15:41:15.434Z,101043.97
2023-05-10T15:43:43.621Z,101032.09
2023-05-10T15:46:13.392Z,101028.41
2023-05-10T15:48:41.490Z,101025.75
2023-05-10T15:51:09.703Z,101025.94
2023-05-10T15:53:37.990Z,101014.06
2023-05-10T15:56:06.958Z,101016.69
2023-05-10T15:58:35.105Z,101018.56
2023-05-10T16:01:03.526Z,101021.84
2023-05-10T16:03:34.885Z,101023.91
2023-05-10T16:06:05.331Z,101020.41
2023-05-10T16:08:33.920Z,101023.69
2023-05-10T16:11:02.556Z,101027.38
2023-05-10T16:13:31.240Z,101039.88
2023-05-10T16:16:00.333Z,101040.66
2023-05-10T16:18:28.554Z,101042.50
2023-05-10T16:20:59.409Z,101048.69
2023-05-10T16:23:28.145Z,101048.22
2023-05-10T16:25:56.409Z,101059.25
2023-05-10T16:28:24.709Z,101061.31
2023-05-10T16:30:53.108Z,101049.63
2023-05-10T16:33:21.301Z,101061.09
2023-05-10T16:35:49.579Z,101070.13
2023-05-10T16:38:19.233Z,101073.84
2023-05-10T16:40:47.434Z,101065.66
2023-05-10T16:43:15.735Z,101098.38
2023-05-10T16:45:43.924Z,101094.88
2023-05-10T16:48:12.136Z,101082.81
2023-05-10T16:50:40.279Z,101099.38
2023-05-10T16:53:08.457Z,101101.25
2023-05-10T16:55:38.117Z,101086.69
2023-05-10T16:58:06.369Z,101087.31
2023-05-10T17:00:34.637Z,101080.97
2023-05-10T17:03:02.973Z,101094.72
2023-05-10T17:05:31.256Z,101100.22
2023-05-10T17:07:59.293Z,101102.44
2023-05-10T17:10:27.559Z,101095.47
2023-05-10T17:12:57.181Z,101092.59
2023-05-10T17:15:25.303Z,101090.50
2023-05-10T17:17:53.542Z,101093.75
2023-05-10T17:20:22.074Z,101095.22
2023-05-10T17:22:50.356Z,101099.13
2023-05-10T17:25:18.756Z,101093.03
2023-05-10T17:27:47.159Z,101104.13
2023-05-10T17:30:17.106Z,101110.31
2023-05-10T17:32:45.482Z,101107.59
2023-05-10T17:35:13.856Z,101119.28
2023-05-10T17:37:42.113Z,101111.94
2023-05-10T17:40:11.948Z,101114.38
2023-05-10T17:42:40.465Z,101114.16
2023-05-10T17:45:09.728Z,101120.50
2023-05-10T17:47:39.433Z,101118.84
2023-05-10T17:50:10.247Z,101118.84
2023-05-10T17:52:38.672Z,101116.78
2023-05-10T17:55:08.701Z,101122.44
2023-05-10T17:57:38.185Z,101126.50
2023-05-10T18:00:08.842Z,101128.94
2023-05-10T18:02:38.825Z,101132.03
2023-05-10T18:05:07.915Z,101135.50
2023-05-10T18:07:36.477Z,101133.00
2023-05-10T18:10:04.855Z,101128.69
2023-05-10T18:12:33.023Z,101128.47
2023-05-10T18:15:01.238Z,101129.81
2023-05-10T18:17:29.528Z,101120.00
2023-05-10T18:19:59.214Z,101114.84
2023-05-10T18:22:27.871Z,101118.94
2023-05-10T18:24:56.296Z,101137.69
2023-05-10T18:27:24.457Z,101138.47
2023-05-10T18:29:52.744Z,101142.56
2023-05-10T18:32:21.130Z,101152.50
2023-05-10T18:34:49.261Z,101148.25
2023-05-10T18:37:18.915Z,101152.94
2023-05-10T18:39:47.244Z,101158.66
2023-05-10T18:42:15.552Z,101150.34
2023-05-10T18:44:43.696Z,101154.63
2023-05-10T18:47:11.912Z,101161.16
2023-05-10T18:49:40.099Z,101160.78
2023-05-10T18:52:08.267Z,101167.75
2023-05-10T18:54:37.836Z,101171.78
2023-05-10T18:57:06.187Z,101168.72
2023-05-10T18:59:35.190Z,101164.63
2023-05-10T19:02:03.967Z,101168.91
2023-05-10T19:04:32.357Z,101165.09
2023-05-10T19:07:02.084Z,101167.13
2023-05-10T19:09:30.398Z,101166.28
2023-05-10T19:12:00.104Z,101179.00
2023-05-10T19:14:28.280Z,101165.47
2023-05-10T19:16:56.604Z,101168.13
2023-05-10T19:19:24.853Z,101165.19
2023-05-10T19:21:53.761Z,101167.09
2023-05-10T19:24:24.472Z,101165.00
2023-05-10T19:26:52.774Z,101164.44
2023-05-10T19:29:23.216Z,101166.16
2023-05-10T19:31:52.548Z,101156.31
2023-05-10T19:34:21.173Z,101158.88
2023-05-10T19:36:49.349Z,101166.31
2023-05-10T19:39:17.517Z,101165.03
2023-05-10T19:41:45.729Z,101165.59
2023-05-10T19:44:13.848Z,101168.13
2023-05-10T19:46:43.929Z,101165.88
2023-05-10T19:49:12.290Z,101172.34
2023-05-10T19:51:41.460Z,101175.50
2023-05-10T19:54:09.744Z,101180.00
2023-05-10T19:56:37.945Z,101177.63
2023-05-10T19:59:07.949Z,101182.28
2023-05-10T20:01:36.326Z,101178.91
2023-05-10T20:04:06.742Z,101187.38
2023-05-10T20:06:34.997Z,101188.09
2023-05-10T20:09:03.085Z,101184.81
2023-05-10T20:11:31.174Z,101185.97
2023-05-10T20:13:59.292Z,101188.47
2023-05-10T20:16:29.199Z,101193.47
2023-05-10T20:18:57.814Z,101184.59
2023-05-10T20:21:27.647Z,101186.75
2023-05-10T20:23:55.799Z,101189.59
2023-05-10T20:26:23.929Z,101187.28
2023-05-10T20:28:52.615Z,101184.31
2023-05-10T20:31:21.249Z,101196.63
2023-05-10T20:33:49.434Z,101192.16
2023-05-10T20:36:18.012Z,101195.78
2023-05-10T20:38:47.638Z,101192.50
2023-05-10T20:41:15.944Z,101195.03
2023-05-10T20:43:44.124Z,101196.03
2023-05-10T20:46:12.476Z,101203.00
2023-05-10T20:48:40.682Z,101204.97
2023-05-10T20:51:09.331Z,101205.25
2023-05-10T20:53:37.870Z,101198.31
2023-05-10T20:56:07.519Z,101212.63
2023-05-10T20:58:36.196Z,101210.84
2023-05-10T21:01:04.900Z,101210.56
2023-05-10T21:03:33.172Z,101215.56
2023-05-10T21:06:01.466Z,101222.97
2023-05-10T21:08:29.695Z,101226.81
2023-05-10T21:10:57.976Z,101226.34
2023-05-10T21:13:27.744Z,101231.81
2023-05-10T21:15:55.965Z,101222.03
2023-05-10T21:18:24.275Z,101224.69
2023-05-10T21:20:52.611Z,101223.69
2023-05-10T21:23:20.796Z,101225.50
2023-05-10T21:25:49.067Z,101229.16
2023-05-10T21:28:17.348Z,101230.00
2023-05-10T21:30:47.922Z,101235.09
2023-05-10T21:33:16.183Z,101231.34
2023-05-10T21:35:45.660Z,101239.75
2023-05-10T21:38:14.020Z,101228.97
2023-05-10T21:40:42.123Z,101238.41
2023-05-10T21:43:11.354Z,101233.56
2023-05-10T21:45:39.931Z,101228.28
2023-05-10T21:48:09.578Z,101231.41
2023-05-10T21:50:37.976Z,101235.16
2023-05-10T21:53:06.244Z,101234.16
2023-05-10T21:55:34.440Z,101230.41
2023-05-10T21:58:02.601Z,101231.06
2023-05-10T22:00:32.761Z,101226.41
2023-05-10T22:03:02.208Z,101233.22
2023-05-10T22:05:31.931Z,101226.28
2023-05-10T22:08:00.145Z,101222.97
2023-05-10T22:10:28.232Z,101219.31
2023-05-10T22:12:56.410Z,101228.94
2023-05-10T22:15:24.585Z,101223.34
2023-05-10T22:17:52.882Z,101231.22
2023-05-10T22:20:21.305Z,101228.88
2023-05-10T22:22:50.921Z,101229.72
2023-05-10T22:25:19.381Z,101227.59
2023-05-10T22:27:47.613Z,101232.19
2023-05-10T22:30:16.333Z,101232.50
2023-05-10T22:32:44.776Z,101230.06
2023-05-10T22:35:13.028Z,101234.69
2023-05-10T22:37:41.655Z,101222.53
2023-05-10T22:40:13.123Z,101226.28
2023-05-10T22:42:41.252Z,101223.63
2023-05-10T22:45:10.658Z,101220.41
2023-05-10T22:47:39.061Z,101228.88
2023-05-10T22:50:08.395Z,101224.41
2023-05-10T22:52:38.985Z,101228.88
2023-05-10T22:55:08.577Z,101231.38
2023-05-10T22:57:38.357Z,101230.84
2023-05-10T23:00:08.496Z,101244.75
2023-05-10T23:02:36.699Z,101238.50
2023-05-10T23:05:05.902Z,101238.97
2023-05-10T23:07:34.346Z,101246.25
2023-05-10T23:10:02.552Z,101237.84
2023-05-10T23:12:31.413Z,101236.69
2023-05-10T23:15:01.149Z,101236.38
2023-05-10T23:17:29.340Z,101241.03
2023-05-10T23:19:57.588Z,101232.91
2023-05-10T23:22:25.789Z,101231.91
2023-05-10T23:24:53.963Z,101233.75
2023-05-10T23:27:22.559Z,101234.75
2023-05-10T23:29:55.820Z,101236.75
2023-05-10T23:32:25.644Z,101237.41
2023-05-10T23:34:53.894Z,101234.75
2023-05-10T23:37:22.132Z,101233.94
2023-05-10T23:39:50.296Z,101236.41
2023-05-10T23:42:18.486Z,101237.06
2023-05-10T23:44:46.950Z,101234.75
2023-05-10T23:47:15.152Z,101235.75
2023-05-10T23:49:44.643Z,101230.47
2023-05-10T23:52:12.894Z,101243.38
2023-05-10T23:54:41.445Z,101246.53
2023-05-10T23:57:10.127Z,101245.09
2023-05-10T23:59:38.639Z,101242.09
